sensor_id;sensor_type;location;lat;lon;timestamp;temperature;humidity
13928;DHT22;7036;50.834;4.718;2023-08-17T00:02:15;25.30;63.40
13928;DHT22;7036;50.834;4.718;2023-08-17T00:04:42;25.30;63.50
13928;DHT22;7036;50.834;4.718;2023-08-17T00:07:10;25.30;63.40
13928;DHT22;7036;50.834;4.718;2023-08-17T00:09:39;25.30;63.80
13928;DHT22;7036;50.834;4.718;2023-08-17T00:12:04;25.30;63.40
13928;DHT22;7036;50.834;4.718;2023-08-17T00:14:31;25.30;63.40
13928;DHT22;7036;50.834;4.718;2023-08-17T00:16:58;25.30;63.40
13928;DHT22;7036;50.834;4.718;2023-08-17T00:19:25;25.30;63.40
13928;DHT22;7036;50.834;4.718;2023-08-17T00:21:53;25.30;63.40
13928;DHT22;7036;50.834;4.718;2023-08-17T00:24:19;25.30;63.40
13928;DHT22;7036;50.834;4.718;2023-08-17T00:26:47;25.30;63.40
13928;DHT22;7036;50.834;4.718;2023-08-17T00:29:13;25.30;63.50
13928;DHT22;7036;50.834;4.718;2023-08-17T00:31:40;25.30;63.40
13928;DHT22;7036;50.834;4.718;2023-08-17T00:34:07;25.30;63.30
13928;DHT22;7036;50.834;4.718;2023-08-17T00:36:37;25.30;63.40
13928;DHT22;7036;50.834;4.718;2023-08-17T00:39:04;25.30;63.40
13928;DHT22;7036;50.834;4.718;2023-08-17T00:41:31;25.30;63.30
13928;DHT22;7036;50.834;4.718;2023-08-17T00:43:59;25.30;63.40
13928;DHT22;7036;50.834;4.718;2023-08-17T00:46:25;25.30;63.40
13928;DHT22;7036;50.834;4.718;2023-08-17T00:48:52;25.30;63.40
13928;DHT22;7036;50.834;4.718;2023-08-17T00:51:19;25.30;63.40
13928;DHT22;7036;50.834;4.718;2023-08-17T00:53:46;25.30;63.40
13928;DHT22;7036;50.834;4.718;2023-08-17T00:56:13;25.30;63.40
13928;DHT22;7036;50.834;4.718;2023-08-17T00:58:40;25.20;63.40
13928;DHT22;7036;50.834;4.718;2023-08-17T01:01:06;25.20;63.40
13928;DHT22;7036;50.834;4.718;2023-08-17T01:03:33;25.20;63.30
13928;DHT22;7036;50.834;4.718;2023-08-17T01:06:01;25.30;63.40
13928;DHT22;7036;50.834;4.718;2023-08-17T01:08:28;25.30;63.30
13928;DHT22;7036;50.834;4.718;2023-08-17T01:10:59;25.30;63.30
13928;DHT22;7036;50.834;4.718;2023-08-17T01:13:47;25.20;63.30
13928;DHT22;7036;50.834;4.718;2023-08-17T01:16:12;25.30;63.30
13928;DHT22;7036;50.834;4.718;2023-08-17T01:18:38;25.20;63.20
13928;DHT22;7036;50.834;4.718;2023-08-17T01:21:06;25.20;63.20
13928;DHT22;7036;50.834;4.718;2023-08-17T01:23:33;25.20;63.40
13928;DHT22;7036;50.834;4.718;2023-08-17T01:26:00;25.20;63.20
13928;DHT22;7036;50.834;4.718;2023-08-17T01:28:27;25.30;63.30
13928;DHT22;7036;50.834;4.718;2023-08-17T01:30:55;25.20;63.20
13928;DHT22;7036;50.834;4.718;2023-08-17T01:33:24;25.30;64.00
13928;DHT22;7036;50.834;4.718;2023-08-17T01:36:10;25.20;63.20
13928;DHT22;7036;50.834;4.718;2023-08-17T01:38:29;25.20;63.20
13928;DHT22;7036;50.834;4.718;2023-08-17T01:40:56;25.30;63.30
13928;DHT22;7036;50.834;4.718;2023-08-17T01:43:23;25.20;63.20
13928;DHT22;7036;50.834;4.718;2023-08-17T01:45:50;25.20;63.10
13928;DHT22;7036;50.834;4.718;2023-08-17T01:48:17;25.20;63.20
13928;DHT22;7036;50.834;4.718;2023-08-17T01:50:44;25.20;63.20
13928;DHT22;7036;50.834;4.718;2023-08-17T01:53:11;25.20;63.20
13928;DHT22;7036;50.834;4.718;2023-08-17T01:55:38;25.20;63.30
13928;DHT22;7036;50.834;4.718;2023-08-17T01:58:05;25.20;63.20
13928;DHT22;7036;50.834;4.718;2023-08-17T02:00:32;25.20;63.20
13928;DHT22;7036;50.834;4.718;2023-08-17T02:02:59;25.20;63.20
13928;DHT22;7036;50.834;4.718;2023-08-17T02:05:26;25.20;63.30
13928;DHT22;7036;50.834;4.718;2023-08-17T02:07:52;25.20;63.30
13928;DHT22;7036;50.834;4.718;2023-08-17T02:10:20;25.20;63.20
13928;DHT22;7036;50.834;4.718;2023-08-17T02:12:47;25.20;63.30
13928;DHT22;7036;50.834;4.718;2023-08-17T02:15:14;25.20;63.20
13928;DHT22;7036;50.834;4.718;2023-08-17T02:17:41;25.20;63.20
13928;DHT22;7036;50.834;4.718;2023-08-17T02:20:08;25.20;63.20
13928;DHT22;7036;50.834;4.718;2023-08-17T02:22:36;25.20;64.10
13928;DHT22;7036;50.834;4.718;2023-08-17T02:25:02;25.20;63.20
13928;DHT22;7036;50.834;4.718;2023-08-17T02:27:29;25.20;63.20
13928;DHT22;7036;50.834;4.718;2023-08-17T02:29:56;25.20;63.20
13928;DHT22;7036;50.834;4.718;2023-08-17T02:32:23;25.20;63.20
13928;DHT22;7036;50.834;4.718;2023-08-17T02:34:50;25.20;63.20
13928;DHT22;7036;50.834;4.718;2023-08-17T02:37:17;25.20;63.20
13928;DHT22;7036;50.834;4.718;2023-08-17T02:39:44;25.20;63.30
13928;DHT22;7036;50.834;4.718;2023-08-17T02:42:11;25.20;63.30
13928;DHT22;7036;50.834;4.718;2023-08-17T02:44:38;25.20;63.20
13928;DHT22;7036;50.834;4.718;2023-08-17T02:47:05;25.20;63.20
13928;DHT22;7036;50.834;4.718;2023-08-17T02:49:32;25.20;63.60
13928;DHT22;7036;50.834;4.718;2023-08-17T02:51:59;25.10;63.20
13928;DHT22;7036;50.834;4.718;2023-08-17T02:54:26;25.20;63.30
13928;DHT22;7036;50.834;4.718;2023-08-17T02:56:53;25.20;63.30
13928;DHT22;7036;50.834;4.718;2023-08-17T02:59:20;25.20;63.30
13928;DHT22;7036;50.834;4.718;2023-08-17T03:01:47;25.20;63.30
13928;DHT22;7036;50.834;4.718;2023-08-17T03:04:14;25.20;63.30
13928;DHT22;7036;50.834;4.718;2023-08-17T03:06:41;25.20;63.30
13928;DHT22;7036;50.834;4.718;2023-08-17T03:09:08;25.10;63.30
13928;DHT22;7036;50.834;4.718;2023-08-17T03:11:35;25.20;63.30
13928;DHT22;7036;50.834;4.718;2023-08-17T03:14:01;25.20;63.30
13928;DHT22;7036;50.834;4.718;2023-08-17T03:16:29;25.20;63.30
13928;DHT22;7036;50.834;4.718;2023-08-17T03:18:56;25.20;63.30
13928;DHT22;7036;50.834;4.718;2023-08-17T03:21:22;25.20;63.30
13928;DHT22;7036;50.834;4.718;2023-08-17T03:23:49;25.20;63.30
13928;DHT22;7036;50.834;4.718;2023-08-17T03:26:16;25.10;63.20
13928;DHT22;7036;50.834;4.718;2023-08-17T03:28:44;25.20;63.30
13928;DHT22;7036;50.834;4.718;2023-08-17T03:31:10;25.10;63.20
13928;DHT22;7036;50.834;4.718;2023-08-17T03:33:37;25.10;63.20
13928;DHT22;7036;50.834;4.718;2023-08-17T03:36:04;25.10;63.20
13928;DHT22;7036;50.834;4.718;2023-08-17T03:38:31;25.10;63.20
13928;DHT22;7036;50.834;4.718;2023-08-17T03:40:58;25.10;63.30
13928;DHT22;7036;50.834;4.718;2023-08-17T03:43:25;25.10;63.20
13928;DHT22;7036;50.834;4.718;2023-08-17T03:45:52;25.10;63.20
13928;DHT22;7036;50.834;4.718;2023-08-17T03:48:18;25.20;63.30
13928;DHT22;7036;50.834;4.718;2023-08-17T03:50:45;25.10;63.20
13928;DHT22;7036;50.834;4.718;2023-08-17T03:53:12;25.10;63.20
13928;DHT22;7036;50.834;4.718;2023-08-17T03:55:42;25.10;63.20
13928;DHT22;7036;50.834;4.718;2023-08-17T03:58:06;25.10;63.30
13928;DHT22;7036;50.834;4.718;2023-08-17T04:00:33;25.10;63.30
13928;DHT22;7036;50.834;4.718;2023-08-17T04:03:00;25.10;63.30
13928;DHT22;7036;50.834;4.718;2023-08-17T04:05:27;25.10;63.30
13928;DHT22;7036;50.834;4.718;2023-08-17T04:07:54;25.10;63.30
13928;DHT22;7036;50.834;4.718;2023-08-17T04:10:21;25.10;63.20
13928;DHT22;7036;50.834;4.718;2023-08-17T04:12:48;25.10;63.40
13928;DHT22;7036;50.834;4.718;2023-08-17T04:15:15;25.10;63.20
13928;DHT22;7036;50.834;4.718;2023-08-17T04:17:42;25.10;63.20
13928;DHT22;7036;50.834;4.718;2023-08-17T04:20:09;25.10;63.30
13928;DHT22;7036;50.834;4.718;2023-08-17T04:22:36;25.10;63.20
13928;DHT22;7036;50.834;4.718;2023-08-17T04:25:03;25.10;63.20
13928;DHT22;7036;50.834;4.718;2023-08-17T04:27:30;25.10;63.20
13928;DHT22;7036;50.834;4.718;2023-08-17T04:29:57;25.10;63.20
13928;DHT22;7036;50.834;4.718;2023-08-17T04:32:24;25.10;63.30
13928;DHT22;7036;50.834;4.718;2023-08-17T04:34:50;25.10;63.30
13928;DHT22;7036;50.834;4.718;2023-08-17T04:37:17;25.10;63.20
13928;DHT22;7036;50.834;4.718;2023-08-17T04:39:44;25.10;63.20
13928;DHT22;7036;50.834;4.718;2023-08-17T04:42:11;25.10;63.20
13928;DHT22;7036;50.834;4.718;2023-08-17T04:44:39;25.10;63.30
13928;DHT22;7036;50.834;4.718;2023-08-17T04:47:06;25.10;63.20
13928;DHT22;7036;50.834;4.718;2023-08-17T04:49:33;25.10;63.30
13928;DHT22;7036;50.834;4.718;2023-08-17T04:51:59;25.10;63.20
13928;DHT22;7036;50.834;4.718;2023-08-17T04:54:26;25.10;63.30
13928;DHT22;7036;50.834;4.718;2023-08-17T04:56:53;25.10;63.20
13928;DHT22;7036;50.834;4.718;2023-08-17T04:59:20;25.10;63.30
13928;DHT22;7036;50.834;4.718;2023-08-17T05:01:47;25.10;63.30
13928;DHT22;7036;50.834;4.718;2023-08-17T05:04:14;25.10;63.20
13928;DHT22;7036;50.834;4.718;2023-08-17T05:06:41;25.10;63.20
13928;DHT22;7036;50.834;4.718;2023-08-17T05:09:08;25.00;63.20
13928;DHT22;7036;50.834;4.718;2023-08-17T05:11:35;25.00;63.30
13928;DHT22;7036;50.834;4.718;2023-08-17T05:14:02;25.00;63.30
13928;DHT22;7036;50.834;4.718;2023-08-17T05:16:29;25.00;63.30
13928;DHT22;7036;50.834;4.718;2023-08-17T05:18:56;25.00;63.30
13928;DHT22;7036;50.834;4.718;2023-08-17T05:21:23;25.00;63.20
13928;DHT22;7036;50.834;4.718;2023-08-17T05:23:50;25.00;63.20
13928;DHT22;7036;50.834;4.718;2023-08-17T05:26:17;25.00;63.20
13928;DHT22;7036;50.834;4.718;2023-08-17T05:28:44;25.00;63.20
13928;DHT22;7036;50.834;4.718;2023-08-17T05:31:11;25.00;63.20
13928;DHT22;7036;50.834;4.718;2023-08-17T05:33:38;25.00;63.20
13928;DHT22;7036;50.834;4.718;2023-08-17T05:36:05;25.00;63.20
13928;DHT22;7036;50.834;4.718;2023-08-17T05:38:32;25.00;63.20
13928;DHT22;7036;50.834;4.718;2023-08-17T05:40:59;25.00;63.20
13928;DHT22;7036;50.834;4.718;2023-08-17T05:43:25;25.00;63.20
13928;DHT22;7036;50.834;4.718;2023-08-17T05:45:53;25.00;63.30
13928;DHT22;7036;50.834;4.718;2023-08-17T05:48:20;25.00;63.30
13928;DHT22;7036;50.834;4.718;2023-08-17T05:50:47;25.00;63.30
13928;DHT22;7036;50.834;4.718;2023-08-17T05:53:15;25.00;63.20
13928;DHT22;7036;50.834;4.718;2023-08-17T05:55:42;25.00;63.20
13928;DHT22;7036;50.834;4.718;2023-08-17T05:58:08;25.00;63.30
13928;DHT22;7036;50.834;4.718;2023-08-17T06:00:36;25.00;63.30
13928;DHT22;7036;50.834;4.718;2023-08-17T06:03:03;25.00;63.20
13928;DHT22;7036;50.834;4.718;2023-08-17T06:05:30;25.00;63.30
13928;DHT22;7036;50.834;4.718;2023-08-17T06:07:57;25.10;63.20
13928;DHT22;7036;50.834;4.718;2023-08-17T06:10:24;25.00;62.70
13928;DHT22;7036;50.834;4.718;2023-08-17T06:12:54;25.00;62.40
13928;DHT22;7036;50.834;4.718;2023-08-17T06:15:22;25.00;62.20
13928;DHT22;7036;50.834;4.718;2023-08-17T06:17:48;25.00;62.10
13928;DHT22;7036;50.834;4.718;2023-08-17T06:20:15;25.00;62.20
13928;DHT22;7036;50.834;4.718;2023-08-17T06:22:42;24.90;62.10
13928;DHT22;7036;50.834;4.718;2023-08-17T06:25:09;24.90;62.00
13928;DHT22;7036;50.834;4.718;2023-08-17T06:27:36;24.90;61.90
13928;DHT22;7036;50.834;4.718;2023-08-17T06:30:03;24.90;61.90
13928;DHT22;7036;50.834;4.718;2023-08-17T06:32:30;24.90;61.80
13928;DHT22;7036;50.834;4.718;2023-08-17T06:34:57;24.90;61.90
13928;DHT22;7036;50.834;4.718;2023-08-17T06:37:24;24.90;61.80
13928;DHT22;7036;50.834;4.718;2023-08-17T06:39:51;24.90;61.80
13928;DHT22;7036;50.834;4.718;2023-08-17T06:42:18;24.90;61.80
13928;DHT22;7036;50.834;4.718;2023-08-17T06:44:45;24.90;61.80
13928;DHT22;7036;50.834;4.718;2023-08-17T06:47:12;24.90;61.80
13928;DHT22;7036;50.834;4.718;2023-08-17T06:49:39;24.90;61.80
13928;DHT22;7036;50.834;4.718;2023-08-17T06:52:06;24.90;61.60
13928;DHT22;7036;50.834;4.718;2023-08-17T06:54:32;24.80;61.60
13928;DHT22;7036;50.834;4.718;2023-08-17T06:56:59;24.80;61.50
13928;DHT22;7036;50.834;4.718;2023-08-17T06:59:26;24.80;61.50
13928;DHT22;7036;50.834;4.718;2023-08-17T07:01:53;24.80;61.40
13928;DHT22;7036;50.834;4.718;2023-08-17T07:04:20;24.80;61.40
13928;DHT22;7036;50.834;4.718;2023-08-17T07:06:48;24.80;61.40
13928;DHT22;7036;50.834;4.718;2023-08-17T07:09:14;24.80;61.40
13928;DHT22;7036;50.834;4.718;2023-08-17T07:11:41;24.80;61.30
13928;DHT22;7036;50.834;4.718;2023-08-17T07:14:08;24.80;61.40
13928;DHT22;7036;50.834;4.718;2023-08-17T07:16:35;24.80;61.50
13928;DHT22;7036;50.834;4.718;2023-08-17T07:19:02;24.80;61.60
13928;DHT22;7036;50.834;4.718;2023-08-17T07:21:29;24.80;62.30
13928;DHT22;7036;50.834;4.718;2023-08-17T07:23:56;24.80;61.60
13928;DHT22;7036;50.834;4.718;2023-08-17T07:26:23;24.80;61.60
13928;DHT22;7036;50.834;4.718;2023-08-17T07:28:50;24.80;61.60
13928;DHT22;7036;50.834;4.718;2023-08-17T07:31:17;24.80;61.60
13928;DHT22;7036;50.834;4.718;2023-08-17T07:33:44;24.80;61.50
13928;DHT22;7036;50.834;4.718;2023-08-17T07:36:12;24.80;61.80
13928;DHT22;7036;50.834;4.718;2023-08-17T07:38:39;24.80;61.60
13928;DHT22;7036;50.834;4.718;2023-08-17T07:41:07;24.80;61.60
13928;DHT22;7036;50.834;4.718;2023-08-17T07:43:34;24.80;61.70
13928;DHT22;7036;50.834;4.718;2023-08-17T07:46:01;24.80;61.60
13928;DHT22;7036;50.834;4.718;2023-08-17T07:48:28;24.80;61.70
13928;DHT22;7036;50.834;4.718;2023-08-17T07:50:58;24.80;61.80
13928;DHT22;7036;50.834;4.718;2023-08-17T07:53:25;24.80;61.90
13928;DHT22;7036;50.834;4.718;2023-08-17T07:55:52;24.80;61.90
13928;DHT22;7036;50.834;4.718;2023-08-17T07:58:20;24.80;61.80
13928;DHT22;7036;50.834;4.718;2023-08-17T08:00:47;24.80;61.90
13928;DHT22;7036;50.834;4.718;2023-08-17T08:03:14;24.80;61.90
13928;DHT22;7036;50.834;4.718;2023-08-17T08:05:41;24.80;61.90
13928;DHT22;7036;50.834;4.718;2023-08-17T08:08:08;24.80;61.90
13928;DHT22;7036;50.834;4.718;2023-08-17T08:10:35;24.80;61.80
13928;DHT22;7036;50.834;4.718;2023-08-17T08:13:02;24.80;61.80
13928;DHT22;7036;50.834;4.718;2023-08-17T08:15:29;24.80;61.80
13928;DHT22;7036;50.834;4.718;2023-08-17T08:17:55;24.80;61.80
13928;DHT22;7036;50.834;4.718;2023-08-17T08:20:22;24.80;61.90
13928;DHT22;7036;50.834;4.718;2023-08-17T08:22:49;24.80;61.90
13928;DHT22;7036;50.834;4.718;2023-08-17T08:25:16;24.80;61.90
13928;DHT22;7036;50.834;4.718;2023-08-17T08:27:43;24.80;61.90
13928;DHT22;7036;50.834;4.718;2023-08-17T08:30:10;24.80;61.70
13928;DHT22;7036;50.834;4.718;2023-08-17T08:32:37;24.90;61.60
13928;DHT22;7036;50.834;4.718;2023-08-17T08:35:04;24.90;61.50
13928;DHT22;7036;50.834;4.718;2023-08-17T08:37:31;24.90;61.50
13928;DHT22;7036;50.834;4.718;2023-08-17T08:39:58;24.90;61.50
13928;DHT22;7036;50.834;4.718;2023-08-17T08:42:25;24.90;61.60
13928;DHT22;7036;50.834;4.718;2023-08-17T08:44:52;24.90;61.60
13928;DHT22;7036;50.834;4.718;2023-08-17T08:47:19;24.90;61.50
13928;DHT22;7036;50.834;4.718;2023-08-17T08:50:02;24.90;61.50
13928;DHT22;7036;50.834;4.718;2023-08-17T08:52:32;24.90;61.50
13928;DHT22;7036;50.834;4.718;2023-08-17T08:54:55;24.90;61.60
13928;DHT22;7036;50.834;4.718;2023-08-17T08:57:22;24.90;61.60
13928;DHT22;7036;50.834;4.718;2023-08-17T08:59:49;25.00;61.80
13928;DHT22;7036;50.834;4.718;2023-08-17T09:02:15;25.00;61.80
13928;DHT22;7036;50.834;4.718;2023-08-17T09:04:45;25.00;61.80
13928;DHT22;7036;50.834;4.718;2023-08-17T09:07:09;24.90;61.80
13928;DHT22;7036;50.834;4.718;2023-08-17T09:09:36;25.00;61.90
13928;DHT22;7036;50.834;4.718;2023-08-17T09:12:03;25.00;61.80
13928;DHT22;7036;50.834;4.718;2023-08-17T09:14:30;25.00;61.70
13928;DHT22;7036;50.834;4.718;2023-08-17T09:16:57;25.00;61.70
13928;DHT22;7036;50.834;4.718;2023-08-17T09:19:24;25.00;61.80
13928;DHT22;7036;50.834;4.718;2023-08-17T09:21:51;25.00;61.70
13928;DHT22;7036;50.834;4.718;2023-08-17T09:24:18;25.00;61.80
13928;DHT22;7036;50.834;4.718;2023-08-17T09:26:45;25.00;61.60
13928;DHT22;7036;50.834;4.718;2023-08-17T09:29:18;25.00;61.70
13928;DHT22;7036;50.834;4.718;2023-08-17T09:31:45;25.00;61.80
13928;DHT22;7036;50.834;4.718;2023-08-17T09:34:14;25.00;62.10
13928;DHT22;7036;50.834;4.718;2023-08-17T09:36:39;24.90;61.90
13928;DHT22;7036;50.834;4.718;2023-08-17T09:39:06;25.00;62.00
13928;DHT22;7036;50.834;4.718;2023-08-17T09:41:40;25.00;62.00
13928;DHT22;7036;50.834;4.718;2023-08-17T09:44:06;25.00;62.00
13928;DHT22;7036;50.834;4.718;2023-08-17T09:46:32;25.00;62.10
13928;DHT22;7036;50.834;4.718;2023-08-17T09:49:01;25.00;61.90
13928;DHT22;7036;50.834;4.718;2023-08-17T09:51:26;25.10;62.00
13928;DHT22;7036;50.834;4.718;2023-08-17T09:53:54;25.00;62.10
13928;DHT22;7036;50.834;4.718;2023-08-17T09:56:23;25.10;62.00
13928;DHT22;7036;50.834;4.718;2023-08-17T09:58:50;25.00;62.10
13928;DHT22;7036;50.834;4.718;2023-08-17T10:01:17;25.00;62.30
13928;DHT22;7036;50.834;4.718;2023-08-17T10:03:44;25.00;62.00
13928;DHT22;7036;50.834;4.718;2023-08-17T10:06:15;25.00;62.50
13928;DHT22;7036;50.834;4.718;2023-08-17T10:08:45;25.00;62.50
13928;DHT22;7036;50.834;4.718;2023-08-17T10:11:12;25.00;62.60
13928;DHT22;7036;50.834;4.718;2023-08-17T10:16:23;25.00;62.60
13928;DHT22;7036;50.834;4.718;2023-08-17T10:18:59;25.00;62.60
13928;DHT22;7036;50.834;4.718;2023-08-17T10:21:28;25.00;62.60
13928;DHT22;7036;50.834;4.718;2023-08-17T10:23:57;25.00;62.60
13928;DHT22;7036;50.834;4.718;2023-08-17T10:26:25;25.10;62.80
13928;DHT22;7036;50.834;4.718;2023-08-17T10:28:52;25.10;62.60
13928;DHT22;7036;50.834;4.718;2023-08-17T10:31:18;25.10;62.60
13928;DHT22;7036;50.834;4.718;2023-08-17T10:33:45;25.10;62.70
13928;DHT22;7036;50.834;4.718;2023-08-17T10:36:12;25.10;62.80
13928;DHT22;7036;50.834;4.718;2023-08-17T10:38:39;25.10;62.90
13928;DHT22;7036;50.834;4.718;2023-08-17T10:41:13;25.10;62.90
13928;DHT22;7036;50.834;4.718;2023-08-17T10:46:21;25.10;62.90
13928;DHT22;7036;50.834;4.718;2023-08-17T10:48:48;25.20;62.80
13928;DHT22;7036;50.834;4.718;2023-08-17T10:51:15;25.20;62.90
13928;DHT22;7036;50.834;4.718;2023-08-17T10:53:44;25.10;62.90
13928;DHT22;7036;50.834;4.718;2023-08-17T10:56:12;25.20;63.00
13928;DHT22;7036;50.834;4.718;2023-08-17T10:58:39;25.20;62.90
13928;DHT22;7036;50.834;4.718;2023-08-17T11:01:06;25.20;62.90
13928;DHT22;7036;50.834;4.718;2023-08-17T11:03:34;25.20;62.80
13928;DHT22;7036;50.834;4.718;2023-08-17T11:06:22;25.20;63.00
13928;DHT22;7036;50.834;4.718;2023-08-17T11:09:05;25.20;62.90
13928;DHT22;7036;50.834;4.718;2023-08-17T11:11:10;25.20;63.00
13928;DHT22;7036;50.834;4.718;2023-08-17T11:13:37;25.20;62.90
13928;DHT22;7036;50.834;4.718;2023-08-17T11:16:04;25.20;63.00
13928;DHT22;7036;50.834;4.718;2023-08-17T11:18:33;25.10;62.70
13928;DHT22;7036;50.834;4.718;2023-08-17T11:21:03;25.10;63.00
13928;DHT22;7036;50.834;4.718;2023-08-17T11:23:28;25.00;63.30
13928;DHT22;7036;50.834;4.718;2023-08-17T11:25:53;25.00;63.20
13928;DHT22;7036;50.834;4.718;2023-08-17T11:28:21;24.90;63.30
13928;DHT22;7036;50.834;4.718;2023-08-17T11:30:57;24.90;63.60
13928;DHT22;7036;50.834;4.718;2023-08-17T11:33:23;24.90;63.30
13928;DHT22;7036;50.834;4.718;2023-08-17T11:35:50;24.90;63.30
13928;DHT22;7036;50.834;4.718;2023-08-17T11:38:17;25.00;63.50
13928;DHT22;7036;50.834;4.718;2023-08-17T11:40:44;24.90;63.60
13928;DHT22;7036;50.834;4.718;2023-08-17T11:43:11;24.90;63.70
13928;DHT22;7036;50.834;4.718;2023-08-17T11:45:38;24.90;63.80
13928;DHT22;7036;50.834;4.718;2023-08-17T11:48:05;24.80;63.80
13928;DHT22;7036;50.834;4.718;2023-08-17T11:50:32;24.80;63.80
13928;DHT22;7036;50.834;4.718;2023-08-17T11:52:59;24.80;63.80
13928;DHT22;7036;50.834;4.718;2023-08-17T11:55:26;24.80;63.90
13928;DHT22;7036;50.834;4.718;2023-08-17T11:57:53;24.80;63.90
13928;DHT22;7036;50.834;4.718;2023-08-17T12:00:20;24.80;64.10
13928;DHT22;7036;50.834;4.718;2023-08-17T12:02:49;24.80;64.30
13928;DHT22;7036;50.834;4.718;2023-08-17T12:05:19;24.80;64.30
13928;DHT22;7036;50.834;4.718;2023-08-17T12:07:48;24.80;64.10
13928;DHT22;7036;50.834;4.718;2023-08-17T12:10:12;24.80;64.30
13928;DHT22;7036;50.834;4.718;2023-08-17T12:12:39;24.80;64.40
13928;DHT22;7036;50.834;4.718;2023-08-17T12:15:06;24.80;64.40
13928;DHT22;7036;50.834;4.718;2023-08-17T12:17:33;24.80;64.30
13928;DHT22;7036;50.834;4.718;2023-08-17T12:20:00;24.80;64.50
13928;DHT22;7036;50.834;4.718;2023-08-17T12:22:27;24.80;64.50
13928;DHT22;7036;50.834;4.718;2023-08-17T12:24:54;24.80;64.20
13928;DHT22;7036;50.834;4.718;2023-08-17T12:27:22;24.80;64.10
13928;DHT22;7036;50.834;4.718;2023-08-17T12:29:51;24.90;64.10
13928;DHT22;7036;50.834;4.718;2023-08-17T12:32:19;24.90;64.10
13928;DHT22;7036;50.834;4.718;2023-08-17T12:34:45;24.90;64.20
13928;DHT22;7036;50.834;4.718;2023-08-17T12:37:12;24.90;64.00
13928;DHT22;7036;50.834;4.718;2023-08-17T12:39:41;24.90;64.20
13928;DHT22;7036;50.834;4.718;2023-08-17T12:42:07;25.00;64.30
13928;DHT22;7036;50.834;4.718;2023-08-17T12:44:34;25.00;64.10
13928;DHT22;7036;50.834;4.718;2023-08-17T12:47:01;25.00;64.20
13928;DHT22;7036;50.834;4.718;2023-08-17T12:49:28;25.00;64.20
13928;DHT22;7036;50.834;4.718;2023-08-17T12:51:55;25.00;64.10
13928;DHT22;7036;50.834;4.718;2023-08-17T12:54:22;25.00;64.20
13928;DHT22;7036;50.834;4.718;2023-08-17T12:56:49;25.00;64.10
13928;DHT22;7036;50.834;4.718;2023-08-17T12:59:16;25.00;64.20
13928;DHT22;7036;50.834;4.718;2023-08-17T13:01:43;25.00;64.10
13928;DHT22;7036;50.834;4.718;2023-08-17T13:04:10;25.00;64.20
13928;DHT22;7036;50.834;4.718;2023-08-17T13:06:37;25.10;64.30
13928;DHT22;7036;50.834;4.718;2023-08-17T13:09:04;25.10;64.20
13928;DHT22;7036;50.834;4.718;2023-08-17T13:11:31;25.10;64.10
13928;DHT22;7036;50.834;4.718;2023-08-17T13:14:01;25.10;64.10
13928;DHT22;7036;50.834;4.718;2023-08-17T13:16:27;25.10;64.20
13928;DHT22;7036;50.834;4.718;2023-08-17T13:18:54;25.10;64.30
13928;DHT22;7036;50.834;4.718;2023-08-17T13:21:21;25.10;64.20
13928;DHT22;7036;50.834;4.718;2023-08-17T13:23:48;25.10;64.20
13928;DHT22;7036;50.834;4.718;2023-08-17T13:26:15;25.10;64.30
13928;DHT22;7036;50.834;4.718;2023-08-17T13:28:42;25.10;64.30
13928;DHT22;7036;50.834;4.718;2023-08-17T13:31:09;25.10;64.20
13928;DHT22;7036;50.834;4.718;2023-08-17T13:33:36;25.10;64.30
13928;DHT22;7036;50.834;4.718;2023-08-17T13:36:04;25.20;64.30
13928;DHT22;7036;50.834;4.718;2023-08-17T13:38:31;25.20;64.30
13928;DHT22;7036;50.834;4.718;2023-08-17T13:40:57;25.20;64.20
13928;DHT22;7036;50.834;4.718;2023-08-17T13:43:24;25.20;64.30
13928;DHT22;7036;50.834;4.718;2023-08-17T13:45:52;25.20;64.20
13928;DHT22;7036;50.834;4.718;2023-08-17T13:48:19;25.20;64.10
13928;DHT22;7036;50.834;4.718;2023-08-17T13:50:46;25.20;64.10
13928;DHT22;7036;50.834;4.718;2023-08-17T13:53:13;25.20;64.20
13928;DHT22;7036;50.834;4.718;2023-08-17T13:55:40;25.20;64.10
13928;DHT22;7036;50.834;4.718;2023-08-17T13:58:07;25.20;64.10
13928;DHT22;7036;50.834;4.718;2023-08-17T14:00:34;25.20;64.10
13928;DHT22;7036;50.834;4.718;2023-08-17T14:03:01;25.20;64.10
13928;DHT22;7036;50.834;4.718;2023-08-17T14:05:27;25.30;64.20
13928;DHT22;7036;50.834;4.718;2023-08-17T14:07:54;25.30;64.00
13928;DHT22;7036;50.834;4.718;2023-08-17T14:10:21;25.30;63.90
13928;DHT22;7036;50.834;4.718;2023-08-17T14:12:48;25.20;64.00
13928;DHT22;7036;50.834;4.718;2023-08-17T14:15:15;25.40;64.00
13928;DHT22;7036;50.834;4.718;2023-08-17T14:17:42;25.30;64.00
13928;DHT22;7036;50.834;4.718;2023-08-17T14:20:09;25.40;64.00
13928;DHT22;7036;50.834;4.718;2023-08-17T14:22:36;25.40;63.70
13928;DHT22;7036;50.834;4.718;2023-08-17T14:25:03;25.50;63.70
13928;DHT22;7036;50.834;4.718;2023-08-17T14:27:30;25.50;63.70
13928;DHT22;7036;50.834;4.718;2023-08-17T14:29:57;25.50;63.60
13928;DHT22;7036;50.834;4.718;2023-08-17T14:32:24;25.50;63.70
13928;DHT22;7036;50.834;4.718;2023-08-17T14:34:51;25.50;63.50
13928;DHT22;7036;50.834;4.718;2023-08-17T14:37:18;25.40;63.80
13928;DHT22;7036;50.834;4.718;2023-08-17T14:39:44;25.30;63.80
13928;DHT22;7036;50.834;4.718;2023-08-17T14:42:12;25.30;64.00
13928;DHT22;7036;50.834;4.718;2023-08-17T14:44:39;25.20;64.10
13928;DHT22;7036;50.834;4.718;2023-08-17T14:47:06;25.20;64.30
13928;DHT22;7036;50.834;4.718;2023-08-17T14:49:33;25.20;64.40
13928;DHT22;7036;50.834;4.718;2023-08-17T14:52:00;25.20;64.40
13928;DHT22;7036;50.834;4.718;2023-08-17T14:54:27;25.20;64.50
13928;DHT22;7036;50.834;4.718;2023-08-17T14:56:54;25.20;64.40
13928;DHT22;7036;50.834;4.718;2023-08-17T14:59:21;25.20;64.30
13928;DHT22;7036;50.834;4.718;2023-08-17T15:01:48;25.20;64.40
13928;DHT22;7036;50.834;4.718;2023-08-17T15:04:15;25.20;64.40
13928;DHT22;7036;50.834;4.718;2023-08-17T15:06:42;25.20;64.30
13928;DHT22;7036;50.834;4.718;2023-08-17T15:09:09;25.20;64.30
13928;DHT22;7036;50.834;4.718;2023-08-17T15:11:36;25.20;64.30
13928;DHT22;7036;50.834;4.718;2023-08-17T15:14:03;25.20;64.40
13928;DHT22;7036;50.834;4.718;2023-08-17T15:16:30;25.20;65.10
13928;DHT22;7036;50.834;4.718;2023-08-17T15:18:57;25.20;64.40
13928;DHT22;7036;50.834;4.718;2023-08-17T15:21:24;25.20;64.40
13928;DHT22;7036;50.834;4.718;2023-08-17T15:23:51;25.20;64.40
13928;DHT22;7036;50.834;4.718;2023-08-17T15:26:18;25.20;64.40
13928;DHT22;7036;50.834;4.718;2023-08-17T15:28:45;25.20;64.40
13928;DHT22;7036;50.834;4.718;2023-08-17T15:31:12;25.20;64.50
13928;DHT22;7036;50.834;4.718;2023-08-17T15:33:40;25.10;64.70
13928;DHT22;7036;50.834;4.718;2023-08-17T15:36:06;25.20;64.90
13928;DHT22;7036;50.834;4.718;2023-08-17T15:38:33;25.10;64.70
13928;DHT22;7036;50.834;4.718;2023-08-17T15:41:01;25.20;64.70
13928;DHT22;7036;50.834;4.718;2023-08-17T15:43:27;25.20;64.70
13928;DHT22;7036;50.834;4.718;2023-08-17T15:45:55;25.20;64.80
13928;DHT22;7036;50.834;4.718;2023-08-17T15:48:22;25.20;64.90
13928;DHT22;7036;50.834;4.718;2023-08-17T15:50:49;25.20;64.90